sensor_id;sensor_type;location;lat;lon;timestamp;pressure;altitude;pressure_sealevel;temperature
69186;BMP280;56298;49.246;9.410;2023-02-28T00:00:10;100299.28;;;-1.32
69186;BMP280;56298;49.246;9.410;2023-02-28T00:02:37;100300.25;;;-1.38
69186;BMP280;56298;49.246;9.410;2023-02-28T00:05:03;100305.63;;;-1.38
69186;BMP280;56298;49.246;9.410;2023-02-28T00:07:29;100301.22;;;-1.45
69186;BMP280;56298;49.246;9.410;2023-02-28T00:09:55;100301.06;;;-1.55
69186;BMP280;56298;49.246;9.410;2023-02-28T00:12:20;100299.41;;;-1.56
69186;BMP280;56298;49.246;9.410;2023-02-28T00:14:46;100296.25;;;-1.53
69186;BMP280;56298;49.246;9.410;2023-02-28T00:17:11;100298.28;;;-1.60
69186;BMP280;56298;49.246;9.410;2023-02-28T00:19:36;100288.00;;;-1.63
69186;BMP280;56298;49.246;9.410;2023-02-28T00:22:02;100291.25;;;-1.61
69186;BMP280;56298;49.246;9.410;2023-02-28T00:24:27;100299.41;;;-1.56
69186;BMP280;56298;49.246;9.410;2023-02-28T00:26:52;100299.31;;;-1.61
69186;BMP280;56298;49.246;9.410;2023-02-28T00:29:17;100295.34;;;-1.59
69186;BMP280;56298;49.246;9.410;2023-02-28T00:31:42;100292.91;;;-1.60
69186;BMP280;56298;49.246;9.410;2023-02-28T00:34:08;100290.78;;;-1.58
69186;BMP280;56298;49.246;9.410;2023-02-28T00:36:33;100288.81;;;-1.63
69186;BMP280;56298;49.246;9.410;2023-02-28T00:38:58;100292.25;;;-1.67
69186;BMP280;56298;49.246;9.410;2023-02-28T00:41:23;100289.00;;;-1.69
69186;BMP280;56298;49.246;9.410;2023-02-28T00:43:49;100291.69;;;-1.69
69186;BMP280;56298;49.246;9.410;2023-02-28T00:46:14;100289.56;;;-1.67
69186;BMP280;56298;49.246;9.410;2023-02-28T00:48:39;100295.75;;;-1.67
69186;BMP280;56298;49.246;9.410;2023-02-28T00:51:05;100297.94;;;-1.64
69186;BMP280;56298;49.246;9.410;2023-02-28T00:53:31;100292.09;;;-1.61
69186;BMP280;56298;49.246;9.410;2023-02-28T00:55:57;100289.78;;;-1.69
69186;BMP280;56298;49.246;9.410;2023-02-28T00:58:23;100289.88;;;-1.64
69186;BMP280;56298;49.246;9.410;2023-02-28T01:00:49;100286.78;;;-1.73
69186;BMP280;56298;49.246;9.410;2023-02-28T01:03:18;100285.31;;;-1.80
69186;BMP280;56298;49.246;9.410;2023-02-28T01:05:44;100291.84;;;-1.76
69186;BMP280;56298;49.246;9.410;2023-02-28T01:08:09;100289.47;;;-1.73
69186;BMP280;56298;49.246;9.410;2023-02-28T01:10:34;100287.75;;;-1.79
69186;BMP280;56298;49.246;9.410;2023-02-28T01:13:02;100288.22;;;-1.82
69186;BMP280;56298;49.246;9.410;2023-02-28T01:15:33;100283.91;;;-1.83
69186;BMP280;56298;49.246;9.410;2023-02-28T01:17:59;100283.22;;;-1.90
69186;BMP280;56298;49.246;9.410;2023-02-28T01:20:24;100277.16;;;-1.86
69186;BMP280;56298;49.246;9.410;2023-02-28T01:22:50;100274.38;;;-1.91
69186;BMP280;56298;49.246;9.410;2023-02-28T01:25:15;100274.00;;;-1.94
69186;BMP280;56298;49.246;9.410;2023-02-28T01:27:40;100281.31;;;-2.07
69186;BMP280;56298;49.246;9.410;2023-02-28T01:30:07;100280.72;;;-2.09
69186;BMP280;56298;49.246;9.410;2023-02-28T01:32:32;100279.22;;;-2.17
69186;BMP280;56298;49.246;9.410;2023-02-28T01:34:58;100278.41;;;-2.17
69186;BMP280;56298;49.246;9.410;2023-02-28T01:37:23;100279.09;;;-2.10
69186;BMP280;56298;49.246;9.410;2023-02-28T01:39:48;100272.75;;;-2.04
69186;BMP280;56298;49.246;9.410;2023-02-28T01:42:13;100278.25;;;-2.11
69186;BMP280;56298;49.246;9.410;2023-02-28T01:44:55;100285.31;;;-2.21
69186;BMP280;56298;49.246;9.410;2023-02-28T01:47:22;100279.94;;;-2.21
69186;BMP280;56298;49.246;9.410;2023-02-28T01:49:49;100272.69;;;-2.21
69186;BMP280;56298;49.246;9.410;2023-02-28T01:52:16;100278.75;;;-2.14
69186;BMP280;56298;49.246;9.410;2023-02-28T01:54:46;100273.13;;;-2.12
69186;BMP280;56298;49.246;9.410;2023-02-28T01:57:15;100275.38;;;-2.21
69186;BMP280;56298;49.246;9.410;2023-02-28T01:59:44;100262.53;;;-2.19
69186;BMP280;56298;49.246;9.410;2023-02-28T02:02:12;100265.25;;;-2.19
69186;BMP280;56298;49.246;9.410;2023-02-28T02:04:44;100262.53;;;-2.19
69186;BMP280;56298;49.246;9.410;2023-02-28T02:07:12;100262.44;;;-2.24
69186;BMP280;56298;49.246;9.410;2023-02-28T02:09:38;100257.06;;;-2.24
69186;BMP280;56298;49.246;9.410;2023-02-28T02:12:15;100258.13;;;-2.25
69186;BMP280;56298;49.246;9.410;2023-02-28T02:15:03;100262.69;;;-2.26
69186;BMP280;56298;49.246;9.410;2023-02-28T02:17:39;100267.31;;;-2.21
69186;BMP280;56298;49.246;9.410;2023-02-28T02:20:58;100257.97;;;-2.18
69186;BMP280;56298;49.246;9.410;2023-02-28T02:25:55;100250.56;;;-2.28
69186;BMP280;56298;49.246;9.410;2023-02-28T02:36:38;100254.69;;;-2.50
69186;BMP280;56298;49.246;9.410;2023-02-28T02:39:19;100247.28;;;-2.42
69186;BMP280;56298;49.246;9.410;2023-02-28T02:41:50;100262.84;;;-2.44
69186;BMP280;56298;49.246;9.410;2023-02-28T02:45:01;100254.28;;;-2.41
69186;BMP280;56298;49.246;9.410;2023-02-28T02:47:30;100252.09;;;-2.44
69186;BMP280;56298;49.246;9.410;2023-02-28T02:49:58;100259.66;;;-2.41
69186;BMP280;56298;49.246;9.410;2023-02-28T02:52:32;100253.38;;;-2.47
69186;BMP280;56298;49.246;9.410;2023-02-28T02:54:59;100247.75;;;-2.33
69186;BMP280;56298;49.246;9.410;2023-02-28T02:57:34;100250.81;;;-2.42
69186;BMP280;56298;49.246;9.410;2023-02-28T03:00:03;100249.78;;;-2.53
69186;BMP280;56298;49.246;9.410;2023-02-28T03:02:31;100252.94;;;-2.56
69186;BMP280;56298;49.246;9.410;2023-02-28T03:05:02;100248.06;;;-2.59
69186;BMP280;56298;49.246;9.410;2023-02-28T03:07:28;100244.75;;;-2.49
69186;BMP280;56298;49.246;9.410;2023-02-28T03:09:55;100245.47;;;-2.54
69186;BMP280;56298;49.246;9.410;2023-02-28T03:12:44;100251.53;;;-2.58
69186;BMP280;56298;49.246;9.410;2023-02-28T03:15:27;100239.84;;;-2.52
69186;BMP280;56298;49.246;9.410;2023-02-28T03:18:02;100237.97;;;-2.52
69186;BMP280;56298;49.246;9.410;2023-02-28T03:20:37;100242.06;;;-2.49
69186;BMP280;56298;49.246;9.410;2023-02-28T03:23:14;100237.75;;;-2.50
69186;BMP280;56298;49.246;9.410;2023-02-28T03:25:59;100240.06;;;-2.42
69186;BMP280;56298;49.246;9.410;2023-02-28T03:28:42;100240.47;;;-2.21
69186;BMP280;56298;49.246;9.410;2023-02-28T03:31:19;100232.16;;;-2.19
69186;BMP280;56298;49.246;9.410;2023-02-28T03:33:50;100235.91;;;-2.20
69186;BMP280;56298;49.246;9.410;2023-02-28T03:36:24;100236.00;;;-2.15
69186;BMP280;56298;49.246;9.410;2023-02-28T03:39:03;100237.88;;;-2.16
69186;BMP280;56298;49.246;9.410;2023-02-28T03:41:43;100236.19;;;-2.05
69186;BMP280;56298;49.246;9.410;2023-02-28T03:44:16;100242.53;;;-2.11
69186;BMP280;56298;49.246;9.410;2023-02-28T03:46:51;100245.47;;;-2.13
69186;BMP280;56298;49.246;9.410;2023-02-28T03:49:25;100243.94;;;-2.08
69186;BMP280;56298;49.246;9.410;2023-02-28T03:51:53;100242.78;;;-2.13
69186;BMP280;56298;49.246;9.410;2023-02-28T03:54:25;100246.84;;;-2.10
69186;BMP280;56298;49.246;9.410;2023-02-28T03:57:04;100245.88;;;-2.04
69186;BMP280;56298;49.246;9.410;2023-02-28T03:59:39;100243.53;;;-2.00
69186;BMP280;56298;49.246;9.410;2023-02-28T04:02:07;100240.00;;;-2.18
69186;BMP280;56298;49.246;9.410;2023-02-28T04:04:33;100243.56;;;-2.12
69186;BMP280;56298;49.246;9.410;2023-02-28T04:07:06;100248.28;;;-2.19
69186;BMP280;56298;49.246;9.410;2023-02-28T04:09:32;100246.91;;;-2.22
69186;BMP280;56298;49.246;9.410;2023-02-28T04:11:58;100248.19;;;-2.25
69186;BMP280;56298;49.246;9.410;2023-02-28T04:14:23;100259.13;;;-2.14
69186;BMP280;56298;49.246;9.410;2023-02-28T04:16:48;100249.13;;;-2.19
69186;BMP280;56298;49.246;9.410;2023-02-28T04:19:15;100252.28;;;-2.22
69186;BMP280;56298;49.246;9.410;2023-02-28T04:21:46;100257.50;;;-2.15
69186;BMP280;56298;49.246;9.410;2023-02-28T04:24:14;100255.91;;;-1.99
69186;BMP280;56298;49.246;9.410;2023-02-28T04:26:42;100252.06;;;-2.03
69186;BMP280;56298;49.246;9.410;2023-02-28T04:29:13;100256.06;;;-2.06
69186;BMP280;56298;49.246;9.410;2023-02-28T04:31:39;100252.72;;;-1.96
69186;BMP280;56298;49.246;9.410;2023-02-28T04:34:05;100244.91;;;-1.86
69186;BMP280;56298;49.246;9.410;2023-02-28T04:36:30;100251.19;;;-1.92
69186;BMP280;56298;49.246;9.410;2023-02-28T04:38:56;100240.34;;;-1.97
69186;BMP280;56298;49.246;9.410;2023-02-28T04:41:22;100242.38;;;-2.04
69186;BMP280;56298;49.246;9.410;2023-02-28T04:43:48;100245.50;;;-1.95
69186;BMP280;56298;49.246;9.410;2023-02-28T04:46:13;100249.84;;;-2.06
69186;BMP280;56298;49.246;9.410;2023-02-28T04:48:39;100254.75;;;-2.03
69186;BMP280;56298;49.246;9.410;2023-02-28T04:51:08;100237.25;;;-2.06
69186;BMP280;56298;49.246;9.410;2023-02-28T04:53:35;100242.03;;;-2.08
69186;BMP280;56298;49.246;9.410;2023-02-28T04:56:00;100247.63;;;-1.98
69186;BMP280;56298;49.246;9.410;2023-02-28T04:58:26;100247.16;;;-2.06
69186;BMP280;56298;49.246;9.410;2023-02-28T05:00:52;100249.84;;;-2.06
69186;BMP280;56298;49.246;9.410;2023-02-28T05:03:18;100254.31;;;-2.12
69186;BMP280;56298;49.246;9.410;2023-02-28T05:05:43;100257.50;;;-2.15
69186;BMP280;56298;49.246;9.410;2023-02-28T05:08:09;100264.97;;;-2.17
69186;BMP280;56298;49.246;9.410;2023-02-28T05:10:35;100265.31;;;-2.14
69186;BMP280;56298;49.246;9.410;2023-02-28T05:13:00;100268.81;;;-2.13
69186;BMP280;56298;49.246;9.410;2023-02-28T05:15:25;100276.97;;;-2.08
69186;BMP280;56298;49.246;9.410;2023-02-28T05:17:50;100277.84;;;-2.19
69186;BMP280;56298;49.246;9.410;2023-02-28T05:20:16;100274.19;;;-2.13
69186;BMP280;56298;49.246;9.410;2023-02-28T05:22:42;100281.34;;;-2.19
69186;BMP280;56298;49.246;9.410;2023-02-28T05:25:10;100271.63;;;-2.20
69186;BMP280;56298;49.246;9.410;2023-02-28T05:27:37;100270.19;;;-2.11
69186;BMP280;56298;49.246;9.410;2023-02-28T05:30:02;100271.44;;;-2.01
69186;BMP280;56298;49.246;9.410;2023-02-28T05:32:29;100271.50;;;-2.13
69186;BMP280;56298;49.246;9.410;2023-02-28T05:34:54;100278.53;;;-2.24
69186;BMP280;56298;49.246;9.410;2023-02-28T05:37:20;100280.28;;;-2.18
69186;BMP280;56298;49.246;9.410;2023-02-28T05:39:45;100272.03;;;-2.28
69186;BMP280;56298;49.246;9.410;2023-02-28T05:42:11;100276.59;;;-2.29
69186;BMP280;56298;49.246;9.410;2023-02-28T05:44:36;100274.97;;;-2.42
69186;BMP280;56298;49.246;9.410;2023-02-28T05:47:01;100268.06;;;-2.38
69186;BMP280;56298;49.246;9.410;2023-02-28T05:49:26;100269.81;;;-2.31
69186;BMP280;56298;49.246;9.410;2023-02-28T05:51:52;100273.44;;;-2.26
69186;BMP280;56298;49.246;9.410;2023-02-28T05:54:17;100277.66;;;-2.42
69186;BMP280;56298;49.246;9.410;2023-02-28T05:56:42;100277.88;;;-2.43
69186;BMP280;56298;49.246;9.410;2023-02-28T05:59:11;100278.72;;;-2.55
69186;BMP280;56298;49.246;9.410;2023-02-28T06:01:41;100282.00;;;-2.53
69186;BMP280;56298;49.246;9.410;2023-02-28T06:04:09;100287.84;;;-2.68
69186;BMP280;56298;49.246;9.410;2023-02-28T06:06:39;100287.03;;;-2.56
69186;BMP280;56298;49.246;9.410;2023-02-28T06:09:04;100277.81;;;-2.60
69186;BMP280;56298;49.246;9.410;2023-02-28T06:11:30;100280.50;;;-2.60
69186;BMP280;56298;49.246;9.410;2023-02-28T06:14:00;100277.69;;;-2.54
69186;BMP280;56298;49.246;9.410;2023-02-28T06:16:27;100281.72;;;-2.39
69186;BMP280;56298;49.246;9.410;2023-02-28T06:18:53;100282.78;;;-2.52
69186;BMP280;56298;49.246;9.410;2023-02-28T06:21:21;100295.09;;;-2.56
69186;BMP280;56298;49.246;9.410;2023-02-28T06:23:46;100280.84;;;-2.57
69186;BMP280;56298;49.246;9.410;2023-02-28T06:26:12;100290.41;;;-2.61
69186;BMP280;56298;49.246;9.410;2023-02-28T06:28:37;100292.28;;;-2.50
69186;BMP280;56298;49.246;9.410;2023-02-28T06:31:09;100294.47;;;-2.46
69186;BMP280;56298;49.246;9.410;2023-02-28T06:33:36;100291.44;;;-2.50
69186;BMP280;56298;49.246;9.410;2023-02-28T06:36:02;100300.78;;;-2.53
69186;BMP280;56298;49.246;9.410;2023-02-28T06:38:28;100303.00;;;-2.62
69186;BMP280;56298;49.246;9.410;2023-02-28T06:40:54;100300.19;;;-2.55
69186;BMP280;56298;49.246;9.410;2023-02-28T06:43:19;100295.16;;;-2.39
69186;BMP280;56298;49.246;9.410;2023-02-28T06:45:44;100302.38;;;-2.28
69186;BMP280;56298;49.246;9.410;2023-02-28T06:48:10;100304.03;;;-1.86
69186;BMP280;56298;49.246;9.410;2023-02-28T06:50:35;100302.50;;;-1.35
69186;BMP280;56298;49.246;9.410;2023-02-28T06:53:01;100303.47;;;-1.07
69186;BMP280;56298;49.246;9.410;2023-02-28T06:55:26;100303.28;;;-1.00
69186;BMP280;56298;49.246;9.410;2023-02-28T06:57:51;100305.81;;;-1.11
69186;BMP280;56298;49.246;9.410;2023-02-28T07:00:17;100312.06;;;-0.88
69186;BMP280;56298;49.246;9.410;2023-02-28T07:02:42;100310.50;;;-0.84
69186;BMP280;56298;49.246;9.410;2023-02-28T07:05:07;100307.53;;;-0.65
69186;BMP280;56298;49.246;9.410;2023-02-28T07:07:33;100321.03;;;-0.43
69186;BMP280;56298;49.246;9.410;2023-02-28T07:09:59;100323.66;;;-0.48
69186;BMP280;56298;49.246;9.410;2023-02-28T07:12:24;100327.25;;;-0.42
69186;BMP280;56298;49.246;9.410;2023-02-28T07:14:50;100328.25;;;-0.04
69186;BMP280;56298;49.246;9.410;2023-02-28T07:17:15;100331.91;;;-0.15
69186;BMP280;56298;49.246;9.410;2023-02-28T07:19:40;100334.16;;;-0.29
69186;BMP280;56298;49.246;9.410;2023-02-28T07:22:06;100332.16;;;-0.17
69186;BMP280;56298;49.246;9.410;2023-02-28T07:24:32;100338.34;;;0.06
69186;BMP280;56298;49.246;9.410;2023-02-28T07:26:57;100342.34;;;0.26
69186;BMP280;56298;49.246;9.410;2023-02-28T07:29:22;100336.31;;;0.46
69186;BMP280;56298;49.246;9.410;2023-02-28T07:31:48;100353.72;;;0.61
69186;BMP280;56298;49.246;9.410;2023-02-28T07:34:15;100349.00;;;0.78
69186;BMP280;56298;49.246;9.410;2023-02-28T07:36:40;100347.19;;;0.89
69186;BMP280;56298;49.246;9.410;2023-02-28T07:39:05;100351.38;;;0.75
69186;BMP280;56298;49.246;9.410;2023-02-28T07:41:31;100342.44;;;0.69
69186;BMP280;56298;49.246;9.410;2023-02-28T07:43:59;100341.25;;;0.87
69186;BMP280;56298;49.246;9.410;2023-02-28T07:46:25;100343.88;;;0.77
69186;BMP280;56298;49.246;9.410;2023-02-28T07:48:51;100343.59;;;1.16
69186;BMP280;56298;49.246;9.410;2023-02-28T07:51:17;100344.53;;;0.95
69186;BMP280;56298;49.246;9.410;2023-02-28T07:53:43;100343.31;;;1.13
69186;BMP280;56298;49.246;9.410;2023-02-28T07:56:08;100336.56;;;1.10
69186;BMP280;56298;49.246;9.410;2023-02-28T07:58:33;100338.69;;;1.08
69186;BMP280;56298;49.246;9.410;2023-02-28T08:01:09;100345.81;;;1.25
69186;BMP280;56298;49.246;9.410;2023-02-28T08:03:36;100349.94;;;1.43
69186;BMP280;56298;49.246;9.410;2023-02-28T08:06:03;100341.53;;;1.29
69186;BMP280;56298;49.246;9.410;2023-02-28T08:08:29;100349.84;;;1.17
69186;BMP280;56298;49.246;9.410;2023-02-28T08:11:01;100350.25;;;1.41
69186;BMP280;56298;49.246;9.410;2023-02-28T08:13:28;100351.41;;;1.56
69186;BMP280;56298;49.246;9.410;2023-02-28T08:15:54;100349.75;;;1.55
69186;BMP280;56298;49.246;9.410;2023-02-28T08:18:20;100347.41;;;1.69
69186;BMP280;56298;49.246;9.410;2023-02-28T08:20:46;100356.88;;;1.71
69186;BMP280;56298;49.246;9.410;2023-02-28T08:23:11;100352.59;;;1.91
69186;BMP280;56298;49.246;9.410;2023-02-28T08:25:36;100360.69;;;1.76
69186;BMP280;56298;49.246;9.410;2023-02-28T08:28:02;100353.66;;;1.75
69186;BMP280;56298;49.246;9.410;2023-02-28T08:30:27;100354.28;;;2.03
69186;BMP280;56298;49.246;9.410;2023-02-28T08:32:53;100339.69;;;2.14
69186;BMP280;56298;49.246;9.410;2023-02-28T08:35:18;100357.16;;;1.75
69186;BMP280;56298;49.246;9.410;2023-02-28T08:37:43;100358.41;;;1.52
69186;BMP280;56298;49.246;9.410;2023-02-28T08:40:09;100347.91;;;1.66
69186;BMP280;56298;49.246;9.410;2023-02-28T08:42:35;100353.66;;;1.80
69186;BMP280;56298;49.246;9.410;2023-02-28T08:45:00;100350.69;;;1.81
69186;BMP280;56298;49.246;9.410;2023-02-28T08:47:26;100355.59;;;2.00
69186;BMP280;56298;49.246;9.410;2023-02-28T08:49:51;100348.28;;;1.90
69186;BMP280;56298;49.246;9.410;2023-02-28T08:52:17;100350.72;;;1.92
69186;BMP280;56298;49.246;9.410;2023-02-28T08:54:42;100343.09;;;1.73
69186;BMP280;56298;49.246;9.410;2023-02-28T08:57:10;100344.25;;;2.03
69186;BMP280;56298;49.246;9.410;2023-02-28T08:59:36;100337.50;;;2.16
69186;BMP280;56298;49.246;9.410;2023-02-28T09:02:01;100341.31;;;2.25
69186;BMP280;56298;49.246;9.410;2023-02-28T09:04:26;100341.59;;;2.45
69186;BMP280;56298;49.246;9.410;2023-02-28T09:06:52;100335.34;;;2.96
69186;BMP280;56298;49.246;9.410;2023-02-28T09:09:17;100340.47;;;3.24
69186;BMP280;56298;49.246;9.410;2023-02-28T09:11:42;100336.97;;;3.08
69186;BMP280;56298;49.246;9.410;2023-02-28T09:14:08;100342.25;;;3.54
69186;BMP280;56298;49.246;9.410;2023-02-28T09:16:34;100343.69;;;3.92
69186;BMP280;56298;49.246;9.410;2023-02-28T09:19:00;100339.41;;;3.80
69186;BMP280;56298;49.246;9.410;2023-02-28T09:21:26;100331.06;;;4.11
69186;BMP280;56298;49.246;9.410;2023-02-28T09:23:51;100334.44;;;3.98
69186;BMP280;56298;49.246;9.410;2023-02-28T09:26:22;100339.59;;;3.99
69186;BMP280;56298;49.246;9.410;2023-02-28T09:28:47;100334.69;;;3.96
69186;BMP280;56298;49.246;9.410;2023-02-28T09:31:15;100334.44;;;3.98
69186;BMP280;56298;49.246;9.410;2023-02-28T09:33:41;100336.78;;;4.10
69186;BMP280;56298;49.246;9.410;2023-02-28T09:36:06;100331.19;;;4.36
69186;BMP280;56298;49.246;9.410;2023-02-28T09:38:32;100326.72;;;4.50
69186;BMP280;56298;49.246;9.410;2023-02-28T09:41:02;100339.44;;;4.20
69186;BMP280;56298;49.246;9.410;2023-02-28T09:43:34;100338.00;;;3.93
69186;BMP280;56298;49.246;9.410;2023-02-28T09:49:14;100349.16;;;4.26
69186;BMP280;56298;49.246;9.410;2023-02-28T09:51:55;100358.09;;;4.27
69186;BMP280;56298;49.246;9.410;2023-02-28T09:54:26;100350.03;;;4.17
69186;BMP280;56298;49.246;9.410;2023-02-28T09:59:49;100350.31;;;4.50
69186;BMP280;56298;49.246;9.410;2023-02-28T10:04:56;100349.50;;;4.55
69186;BMP280;56298;49.246;9.410;2023-02-28T10:10:19;100348.06;;;4.28
69186;BMP280;56298;49.246;9.410;2023-02-28T10:12:47;100351.16;;;4.50
69186;BMP280;56298;49.246;9.410;2023-02-28T10:15:16;100360.22;;;5.00
69186;BMP280;56298;49.246;9.410;2023-02-28T10:17:45;100349.53;;;4.79
69186;BMP280;56298;49.246;9.410;2023-02-28T10:20:19;100360.78;;;4.67
69186;BMP280;56298;49.246;9.410;2023-02-28T10:23:04;100353.88;;;4.80
69186;BMP280;56298;49.246;9.410;2023-02-28T10:25:33;100358.94;;;4.62
69186;BMP280;56298;49.246;9.410;2023-02-28T10:30:33;100363.09;;;4.84
69186;BMP280;56298;49.246;9.410;2023-02-28T10:32:59;100363.88;;;4.20
69186;BMP280;56298;49.246;9.410;2023-02-28T10:35:25;100357.50;;;4.35
69186;BMP280;56298;49.246;9.410;2023-02-28T10:38:00;100358.19;;;4.51
69186;BMP280;56298;49.246;9.410;2023-02-28T10:40:34;100359.13;;;4.71
69186;BMP280;56298;49.246;9.410;2023-02-28T10:45:38;100352.13;;;4.65
69186;BMP280;56298;49.246;9.410;2023-02-28T10:50:52;100368.31;;;5.05
69186;BMP280;56298;49.246;9.410;2023-02-28T10:55:59;100358.38;;;4.65
69186;BMP280;56298;49.246;9.410;2023-02-28T10:58:32;100360.06;;;4.56
69186;BMP280;56298;49.246;9.410;2023-02-28T11:00:59;100363.72;;;4.41
69186;BMP280;56298;49.246;9.410;2023-02-28T11:03:35;100367.50;;;4.05
69186;BMP280;56298;49.246;9.410;2023-02-28T11:06:06;100359.31;;;4.50
69186;BMP280;56298;49.246;9.410;2023-02-28T11:08:33;100358.47;;;4.50
69186;BMP280;56298;49.246;9.410;2023-02-28T11:11:04;100365.34;;;4.02
69186;BMP280;56298;49.246;9.410;2023-02-28T11:13:35;100363.63;;;3.61
69186;BMP280;56298;49.246;9.410;2023-02-28T11:16:05;100353.69;;;3.41
69186;BMP280;56298;49.246;9.410;2023-02-28T11:18:40;100348.78;;;3.53
69186;BMP280;56298;49.246;9.410;2023-02-28T11:21:07;100336.72;;;4.20
69186;BMP280;56298;49.246;9.410;2023-02-28T11:23:35;100342.41;;;4.53
69186;BMP280;56298;49.246;9.410;2023-02-28T11:26:03;100355.25;;;4.83
69186;BMP280;56298;49.246;9.410;2023-02-28T11:28:34;100339.31;;;5.44
69186;BMP280;56298;49.246;9.410;2023-02-28T11:31:14;100346.38;;;5.45
69186;BMP280;56298;49.246;9.410;2023-02-28T11:33:50;100345.84;;;5.43
69186;BMP280;56298;49.246;9.410;2023-02-28T11:36:24;100344.13;;;5.71
69186;BMP280;56298;49.246;9.410;2023-02-28T11:38:51;100347.78;;;5.42
69186;BMP280;56298;49.246;9.410;2023-02-28T11:46:43;100344.09;;;5.33
69186;BMP280;56298;49.246;9.410;2023-02-28T11:49:32;100333.72;;;5.35
69186;BMP280;56298;49.246;9.410;2023-02-28T11:52:03;100336.63;;;5.63
69186;BMP280;56298;49.246;9.410;2023-02-28T11:57:35;100333.59;;;6.55
69186;BMP280;56298;49.246;9.410;2023-02-28T12:00:53;100333.91;;;6.35
69186;BMP280;56298;49.246;9.410;2023-02-28T12:17:21;100330.84;;;5.45
69186;BMP280;56298;49.246;9.410;2023-02-28T12:22:37;100328.63;;;5.28
69186;BMP280;56298;49.246;9.410;2023-02-28T12:27:49;100325.28;;;5.56
69186;BMP280;56298;49.246;9.410;2023-02-28T12:30:32;100318.03;;;5.70
69186;BMP280;56298;49.246;9.410;2023-02-28T12:33:08;100315.78;;;5.34
69186;BMP280;56298;49.246;9.410;2023-02-28T12:35:43;100315.91;;;5.67
69186;BMP280;56298;49.246;9.410;2023-02-28T12:38:14;100306.28;;;6.08
69186;BMP280;56298;49.246;9.410;2023-02-28T12:40:49;100302.47;;;6.09
69186;BMP280;56298;49.246;9.410;2023-02-28T12:43:17;100299.88;;;5.85
69186;BMP280;56298;49.246;9.410;2023-02-28T12:45:56;100303.09;;;5.68
69186;BMP280;56298;49.246;9.410;2023-02-28T12:48:47;100309.84;;;5.51
69186;BMP280;56298;49.246;9.410;2023-02-28T12:51:16;100307.84;;;5.18
69186;BMP280;56298;49.246;9.410;2023-02-28T12:54:04;100296.13;;;5.18
69186;BMP280;56298;49.246;9.410;2023-02-28T12:57:02;100304.91;;;5.34
69186;BMP280;56298;49.246;9.410;2023-02-28T13:02:18;100295.28;;;4.98
69186;BMP280;56298;49.246;9.410;2023-02-28T13:05:01;100302.47;;;5.08
69186;BMP280;56298;49.246;9.410;2023-02-28T13:10:00;100295.03;;;4.95
69186;BMP280;56298;49.246;9.410;2023-02-28T13:12:27;100297.94;;;5.03
69186;BMP280;56298;49.246;9.410;2023-02-28T13:15:05;100289.06;;;4.92
69186;BMP280;56298;49.246;9.410;2023-02-28T13:17:31;100288.22;;;4.97
69186;BMP280;56298;49.246;9.410;2023-02-28T13:19:58;100284.47;;;5.56
69186;BMP280;56298;49.246;9.410;2023-02-28T13:22:37;100285.59;;;5.55
69186;BMP280;56298;49.246;9.410;2023-02-28T13:28:11;100293.00;;;5.68
69186;BMP280;56298;49.246;9.410;2023-02-28T13:33:26;100286.13;;;5.13
69186;BMP280;56298;49.246;9.410;2023-02-28T13:38:38;100285.78;;;4.96
69186;BMP280;56298;49.246;9.410;2023-02-28T13:44:20;100288.91;;;4.84
69186;BMP280;56298;49.246;9.410;2023-02-28T13:49:25;100280.50;;;4.85
69186;BMP280;56298;49.246;9.410;2023-02-28T13:51:52;100280.28;;;5.25
69186;BMP280;56298;49.246;9.410;2023-02-28T13:57:14;100275.84;;;5.29
69186;BMP280;56298;49.246;9.410;2023-02-28T14:05:35;100274.25;;;5.47
69186;BMP280;56298;49.246;9.410;2023-02-28T14:08:16;100267.19;;;5.27
69186;BMP280;56298;49.246;9.410;2023-02-28T14:10:46;100271.78;;;5.27
69186;BMP280;56298;49.246;9.410;2023-02-28T14:15:59;100274.34;;;5.42
69186;BMP280;56298;49.246;9.410;2023-02-28T14:18:34;100269.19;;;5.41
69186;BMP280;56298;49.246;9.410;2023-02-28T14:24:13;100279.31;;;4.91
69186;BMP280;56298;49.246;9.410;2023-02-28T14:35:44;100268.66;;;5.19
69186;BMP280;56298;49.246;9.410;2023-02-28T14:38:23;100262.44;;;5.38
69186;BMP280;56298;49.246;9.410;2023-02-28T14:40:52;100265.00;;;5.48
69186;BMP280;56298;49.246;9.410;2023-02-28T14:43:24;100268.97;;;5.37
69186;BMP280;56298;49.246;9.410;2023-02-28T14:45:51;100268.00;;;5.28
69186;BMP280;56298;49.246;9.410;2023-02-28T14:48:19;100264.94;;;5.34
69186;BMP280;56298;49.246;9.410;2023-02-28T14:50:58;100263.34;;;5.28
69186;BMP280;56298;49.246;9.410;2023-02-28T14:53:27;100257.69;;;5.25
69186;BMP280;56298;49.246;9.410;2023-02-28T14:55:53;100268.94;;;5.18
69186;BMP280;56298;49.246;9.410;2023-02-28T14:58:28;100265.31;;;5.03
69186;BMP280;56298;49.246;9.410;2023-02-28T15:00:56;100269.72;;;4.99
69186;BMP280;56298;49.246;9.410;2023-02-28T15:03:27;100265.38;;;4.98
69186;BMP280;56298;49.246;9.410;2023-02-28T15:05:59;100272.75;;;4.92
69186;BMP280;56298;49.246;9.410;2023-02-28T15:08:26;100270.91;;;4.88
69186;BMP280;56298;49.246;9.410;2023-02-28T15:13:23;100275.53;;;4.87
69186;BMP280;56298;49.246;9.410;2023-02-28T15:16:03;100267.03;;;4.94
69186;BMP280;56298;49.246;9.410;2023-02-28T15:21:11;100272.72;;;4.98
69186;BMP280;56298;49.246;9.410;2023-02-28T15:23:38;100269.44;;;5.01
69186;BMP280;56298;49.246;9.410;2023-02-28T15:26:04;100269.72;;;4.99
69186;BMP280;56298;49.246;9.410;2023-02-28T15:28:30;100273.25;;;5.00
69186;BMP280;56298;49.246;9.410;2023-02-28T15:31:01;100268.91;;;4.74
69186;BMP280;56298;49.246;9.410;2023-02-28T15:33:29;100271.75;;;4.59
69186;BMP280;56298;49.246;9.410;2023-02-28T15:36:13;100273.72;;;4.53
69186;BMP280;56298;49.246;9.410;2023-02-28T15:38:40;100270.38;;;4.61
69186;BMP280;56298;49.246;9.410;2023-02-28T15:41:05;100271.56;;;4.50
69186;BMP280;56298;49.246;9.410;2023-02-28T15:43:38;100274.28;;;4.50
69186;BMP280;56298;49.246;9.410;2023-02-28T15:46:07;100277.53;;;4.52
69186;BMP280;56298;49.246;9.410;2023-02-28T15:48:35;100274.00;;;4.51
69186;BMP280;56298;49.246;9.410;2023-02-28T15:53:33;100274.25;;;4.55
69186;BMP280;56298;49.246;9.410;2023-02-28T15:56:04;100273.41;;;4.60
69186;BMP280;56298;49.246;9.410;2023-02-28T15:58:30;100268.53;;;4.57
69186;BMP280;56298;49.246;9.410;2023-02-28T16:01:08;100267.53;;;4.47
69186;BMP280;56298;49.246;9.410;2023-02-28T16:03:48;100266.25;;;4.39